Time;durP1;ratioP1;P1;durP2;ratioP2;P2;SDS_P1;SDS_P2;PMS_P1;PMS_P2;Temp;Humidity;BMP_temperature;BMP_pressure;BME280_temperature;BME280_humidity;BME280_pressure;Samples;Min_cycle;Max_cycle;Signal;HPM_P1;HPM_P2
2023/12/19 00:01:03;;;;;;;51.17;25.40;;;6.00;99.90;;;;;;5070006;28;20025;-72
2023/12/19 00:03:28;;;;;;;59.50;26.20;;;6.00;99.90;;;;;;5065862;28;20546;-72
2023/12/19 00:05:54;;;;;;;48.97;25.02;;;6.00;99.90;;;;;;5081661;28;20035;-72
2023/12/19 00:08:19;;;;;;;53.50;26.30;;;6.00;99.90;;;;;;5088850;28;20052;-72
2023/12/19 00:10:45;;;;;;;52.03;23.65;;;6.10;99.90;;;;;;5082772;28;20081;-72
2023/12/19 00:13:11;;;;;;;46.97;24.23;;;6.10;99.90;;;;;;5076367;28;20017;-72
2023/12/19 00:15:37;;;;;;;49.00;25.08;;;6.10;99.90;;;;;;5071581;28;20032;-72
2023/12/19 00:18:03;;;;;;;47.60;23.60;;;6.10;99.90;;;;;;5069408;28;20036;-72
2023/12/19 00:20:29;;;;;;;53.13;24.77;;;6.00;99.90;;;;;;5071288;28;20154;-72
2023/12/19 00:22:54;;;;;;;52.35;25.17;;;6.10;99.90;;;;;;5072373;28;20111;-73
2023/12/19 00:25:23;;;;;;;50.47;24.17;;;6.10;99.90;;;;;;5058660;28;20021;-72
2023/12/19 00:27:49;;;;;;;54.00;25.63;;;6.10;99.90;;;;;;5067251;28;20068;-72
2023/12/19 00:30:14;;;;;;;52.30;24.23;;;6.10;99.90;;;;;;5082053;28;20020;-72
2023/12/19 00:32:40;;;;;;;47.80;24.25;;;6.20;99.90;;;;;;5081433;28;20024;-72
2023/12/19 00:35:06;;;;;;;50.10;25.17;;;6.20;99.90;;;;;;5068249;28;20132;-72
2023/12/19 00:37:32;;;;;;;56.75;24.70;;;6.20;99.90;;;;;;5071236;28;20054;-72
2023/12/19 00:39:57;;;;;;;55.60;24.80;;;6.20;99.90;;;;;;5069982;28;20103;-72
2023/12/19 00:42:23;;;;;;;55.83;25.90;;;6.10;99.90;;;;;;5074461;28;20441;-72
2023/12/19 00:44:48;;;;;;;50.10;25.33;;;6.20;99.90;;;;;;5072697;28;20127;-72
2023/12/19 00:47:14;;;;;;;51.38;24.60;;;6.10;99.90;;;;;;5068651;28;20480;-72
2023/12/19 00:49:39;;;;;;;55.08;26.02;;;6.20;99.90;;;;;;5070189;28;20032;-72
2023/12/19 00:52:05;;;;;;;51.10;24.85;;;6.10;99.90;;;;;;5073931;28;20531;-72
2023/12/19 00:54:31;;;;;;;46.65;25.65;;;6.20;99.90;;;;;;5077180;28;20027;-71
2023/12/19 00:56:56;;;;;;;55.28;25.60;;;6.10;99.90;;;;;;5070528;28;20025;-72
2023/12/19 00:59:22;;;;;;;51.40;25.67;;;6.20;99.90;;;;;;5066642;28;20370;-72
2023/12/19 01:01:47;;;;;;;51.08;25.02;;;6.20;99.90;;;;;;5082588;28;20118;-72
2023/12/19 01:04:13;;;;;;;53.80;27.00;;;6.20;99.90;;;;;;5062147;28;20469;-72
2023/12/19 01:06:39;;;;;;;54.70;25.67;;;6.20;99.90;;;;;;5081343;28;20036;-72
2023/12/19 01:09:05;;;;;;;59.33;27.13;;;6.20;99.90;;;;;;5067732;28;20388;-72
2023/12/19 01:11:31;;;;;;;49.47;24.75;;;6.20;99.90;;;;;;5065475;28;20040;-72
2023/12/19 01:13:56;;;;;;;56.63;25.67;;;6.20;99.90;;;;;;5081323;28;20391;-72
2023/12/19 01:16:22;;;;;;;55.03;26.25;;;6.20;99.90;;;;;;5067255;28;20477;-72
2023/12/19 01:18:47;;;;;;;52.80;24.55;;;6.30;99.90;;;;;;5077754;28;20047;-72
2023/12/19 01:21:13;;;;;;;59.25;26.40;;;6.20;99.90;;;;;;5070043;28;20027;-72
2023/12/19 01:23:39;;;;;;;53.78;25.20;;;6.30;99.90;;;;;;5072219;28;20032;-72
2023/12/19 01:26:05;;;;;;;56.35;26.65;;;6.30;99.90;;;;;;5074875;28;20029;-72
2023/12/19 01:28:30;;;;;;;58.03;25.80;;;6.30;99.90;;;;;;5067820;28;20036;-72
2023/12/19 01:30:56;;;;;;;53.63;25.60;;;6.30;99.90;;;;;;5083485;28;20545;-72
2023/12/19 01:33:22;;;;;;;48.45;25.20;;;6.30;99.90;;;;;;5078087;28;20146;-72
2023/12/19 01:35:47;;;;;;;51.17;25.15;;;6.30;99.90;;;;;;5070419;28;20040;-72
2023/12/19 01:38:14;;;;;;;52.03;24.42;;;6.30;99.90;;;;;;5067591;28;20021;-72
2023/12/19 01:40:40;;;;;;;53.85;25.83;;;6.30;99.90;;;;;;5074752;28;20035;-72
2023/12/19 01:43:18;;;;;;;56.65;25.30;;;6.30;99.90;;;;;;5081338;28;20534;-72
2023/12/19 01:45:43;;;;;;;52.33;25.60;;;6.40;99.90;;;;;;5070866;28;20086;-72
2023/12/19 01:48:09;;;;;;;54.70;25.60;;;6.30;99.90;;;;;;5065882;28;20048;-72
2023/12/19 01:50:35;;;;;;;60.08;27.55;;;6.40;99.90;;;;;;5075660;28;20031;-72
2023/12/19 01:53:01;;;;;;;57.25;25.65;;;6.40;99.90;;;;;;5063141;28;20025;-72
2023/12/19 01:55:27;;;;;;;60.10;26.50;;;6.30;99.90;;;;;;5066786;28;20028;-73
2023/12/19 01:57:56;;;;;;;58.40;26.42;;;6.40;99.90;;;;;;5068006;28;20029;-72
2023/12/19 02:00:22;;;;;;;56.03;26.42;;;6.40;99.90;;;;;;5071699;28;20078;-72
2023/12/19 02:02:51;;;;;;;57.17;26.33;;;6.40;99.90;;;;;;5069599;28;20029;-72
2023/12/19 02:05:17;;;;;;;51.63;25.83;;;6.40;99.90;;;;;;5072913;28;20028;-72
2023/12/19 02:07:43;;;;;;;55.25;27.17;;;6.40;99.90;;;;;;5076974;28;20136;-72
2023/12/19 02:10:09;;;;;;;53.45;26.45;;;6.40;99.90;;;;;;5057134;28;20075;-72
2023/12/19 02:12:35;;;;;;;59.05;28.52;;;6.40;99.90;;;;;;5070399;28;20025;-72
2023/12/19 02:15:02;;;;;;;59.60;26.08;;;6.40;99.90;;;;;;5080373;28;20070;-72
2023/12/19 02:17:28;;;;;;;52.90;26.65;;;6.40;99.90;;;;;;5073421;28;20025;-72
2023/12/19 02:19:53;;;;;;;52.42;25.38;;;6.40;99.90;;;;;;5062947;28;20021;-72
2023/12/19 02:22:19;;;;;;;59.80;25.65;;;6.40;99.90;;;;;;5061755;28;20074;-72
2023/12/19 02:24:45;;;;;;;60.63;26.65;;;6.40;99.90;;;;;;5068023;28;20028;-72
2023/12/19 02:27:12;;;;;;;59.38;27.63;;;6.50;99.90;;;;;;5082117;28;20045;-72
2023/12/19 02:29:38;;;;;;;53.60;27.20;;;6.50;99.90;;;;;;5077903;28;20417;-72
2023/12/19 02:32:03;;;;;;;54.90;26.17;;;6.40;99.90;;;;;;5076564;28;20039;-72
2023/12/19 02:34:29;;;;;;;58.63;25.90;;;6.50;99.90;;;;;;5077194;28;20021;-73
2023/12/19 02:36:55;;;;;;;53.80;27.00;;;6.50;99.90;;;;;;5081064;28;20029;-72
2023/12/19 02:39:21;;;;;;;56.88;26.48;;;6.50;99.90;;;;;;5072239;28;20031;-72
2023/12/19 02:41:47;;;;;;;60.50;27.48;;;6.50;99.90;;;;;;5077269;28;20028;-72
2023/12/19 02:44:12;;;;;;;54.40;25.98;;;6.50;99.90;;;;;;5066306;28;20098;-72
2023/12/19 02:46:38;;;;;;;61.75;28.38;;;6.50;99.90;;;;;;5064007;28;20039;-72
2023/12/19 02:49:04;;;;;;;55.22;26.55;;;6.50;99.90;;;;;;5069766;28;20450;-72
2023/12/19 02:51:30;;;;;;;56.53;26.33;;;6.50;99.90;;;;;;5061624;28;20021;-72
2023/12/19 02:53:56;;;;;;;59.58;28.00;;;6.50;99.90;;;;;;5082826;28;20031;-72
2023/12/19 02:56:22;;;;;;;61.92;27.27;;;6.50;99.90;;;;;;5064691;28;20592;-72
2023/12/19 02:58:48;;;;;;;61.03;26.92;;;6.50;99.90;;;;;;5071915;28;20115;-72
2023/12/19 03:01:14;;;;;;;57.63;26.40;;;6.60;99.90;;;;;;5068473;28;20110;-72
2023/12/19 03:03:43;;;;;;;61.53;27.10;;;6.60;99.90;;;;;;5084726;28;20476;-72
2023/12/19 03:06:09;;;;;;;54.65;26.30;;;6.60;99.90;;;;;;5053434;28;20128;-72
2023/12/19 03:08:35;;;;;;;56.90;27.75;;;6.60;99.90;;;;;;5072243;28;20447;-73
2023/12/19 03:11:01;;;;;;;51.78;26.40;;;6.60;99.90;;;;;;5061421;28;20068;-72
2023/12/19 03:13:27;;;;;;;57.95;25.55;;;6.60;99.90;;;;;;5054999;28;20032;-73
2023/12/19 03:15:53;;;;;;;50.08;24.60;;;6.60;99.90;;;;;;5069414;28;20028;-72
2023/12/19 03:18:23;;;;;;;52.92;24.77;;;6.60;99.90;;;;;;5064646;28;20431;-72
2023/12/19 03:20:51;;;;;;;44.50;23.30;;;6.60;99.90;;;;;;5065695;28;20032;-72
2023/12/19 03:23:18;;;;;;;47.80;25.55;;;6.60;99.90;;;;;;5069815;28;20051;-72
2023/12/19 03:25:44;;;;;;;43.30;22.30;;;6.60;99.90;;;;;;5066252;28;20033;-72
2023/12/19 03:28:09;;;;;;;42.40;21.90;;;6.60;99.90;;;;;;5068311;28;20067;-72
2023/12/19 03:30:35;;;;;;;49.28;22.15;;;6.60;99.90;;;;;;5058287;28;20442;-72
2023/12/19 03:33:00;;;;;;;42.03;20.63;;;6.60;99.90;;;;;;5069225;28;20025;-72
2023/12/19 03:35:26;;;;;;;37.50;20.38;;;6.60;99.90;;;;;;5063873;28;20353;-72
2023/12/19 03:37:52;;;;;;;41.58;20.15;;;6.60;99.90;;;;;;5070031;28;20029;-72
2023/12/19 03:40:17;;;;;;;42.97;21.83;;;6.60;99.90;;;;;;5068281;28;20021;-72
2023/12/19 03:42:43;;;;;;;36.70;19.70;;;6.60;99.90;;;;;;5069313;28;20029;-72
2023/12/19 03:45:09;;;;;;;37.47;19.70;;;6.60;99.90;;;;;;5064889;28;20052;-72
2023/12/19 03:47:35;;;;;;;37.63;19.50;;;6.60;99.90;;;;;;5076726;28;20401;-72
2023/12/19 03:50:01;;;;;;;38.50;18.70;;;6.70;99.90;;;;;;5072678;28;20125;-72
2023/12/19 03:52:27;;;;;;;34.17;18.88;;;6.60;99.90;;;;;;5070788;28;20060;-72
2023/12/19 03:54:52;;;;;;;36.65;19.83;;;6.60;99.90;;;;;;5076256;28;20028;-72
2023/12/19 03:57:18;;;;;;;32.40;17.98;;;6.60;99.90;;;;;;5067536;28;20031;-72
2023/12/19 03:59:44;;;;;;;35.50;18.58;;;6.60;99.90;;;;;;5067881;28;20024;-72
2023/12/19 04:02:13;;;;;;;37.08;18.13;;;6.60;99.90;;;;;;5066919;28;20024;-72
2023/12/19 04:04:38;;;;;;;34.80;18.63;;;6.60;99.90;;;;;;5071229;28;20036;-72
2023/12/19 04:07:04;;;;;;;36.97;18.20;;;6.60;99.90;;;;;;5065260;28;20476;-73
2023/12/19 04:09:30;;;;;;;34.42;17.98;;;6.60;99.90;;;;;;5075076;28;20099;-72
2023/12/19 04:11:55;;;;;;;35.42;18.02;;;6.60;99.90;;;;;;5067591;28;20029;-72
2023/12/19 04:14:23;;;;;;;36.28;19.05;;;6.60;99.90;;;;;;5082131;28;20047;-73
2023/12/19 04:16:49;;;;;;;36.67;18.77;;;6.60;99.90;;;;;;5065821;28;20498;-73
2023/12/19 04:19:14;;;;;;;33.25;18.02;;;6.60;99.90;;;;;;5073872;28;20103;-72
2023/12/19 04:21:41;;;;;;;35.33;18.73;;;6.60;99.90;;;;;;5069483;28;20465;-72
2023/12/19 04:24:07;;;;;;;32.50;17.42;;;6.70;99.90;;;;;;5079461;28;20119;-72
2023/12/19 04:26:32;;;;;;;34.00;17.48;;;6.70;99.90;;;;;;5075682;28;20554;-72
2023/12/19 04:28:58;;;;;;;32.75;17.35;;;6.70;99.90;;;;;;5080530;28;20040;-72
2023/12/19 04:31:24;;;;;;;31.85;16.95;;;6.70;99.90;;;;;;5070638;28;20741;-72
2023/12/19 04:33:49;;;;;;;31.55;16.80;;;6.70;99.90;;;;;;5068091;28;20025;-72
2023/12/19 04:36:15;;;;;;;27.77;15.45;;;6.70;99.90;;;;;;5074110;28;20369;-72
2023/12/19 04:38:40;;;;;;;29.13;16.20;;;6.70;99.90;;;;;;5078648;28;20035;-72
2023/12/19 04:41:06;;;;;;;26.92;15.13;;;6.70;99.90;;;;;;5068721;28;20099;-72
2023/12/19 04:43:32;;;;;;;26.15;15.02;;;6.70;99.90;;;;;;5069384;28;20130;-72
2023/12/19 04:45:59;;;;;;;28.83;15.50;;;6.70;99.90;;;;;;5067504;28;20384;-72
2023/12/19 04:48:24;;;;;;;30.67;17.05;;;6.70;99.90;;;;;;5075555;28;20040;-72
2023/12/19 04:50:50;;;;;;;31.35;16.05;;;6.70;99.90;;;;;;5080086;28;20028;-72
2023/12/19 04:53:16;;;;;;;31.88;16.92;;;6.70;99.90;;;;;;5065337;28;20032;-72
2023/12/19 04:55:42;;;;;;;34.63;18.10;;;6.70;99.90;;;;;;5072631;28;20488;-72
2023/12/19 04:58:07;;;;;;;34.47;18.50;;;6.80;99.90;;;;;;5068573;28;20539;-72
2023/12/19 05:00:33;;;;;;;40.35;20.65;;;6.70;99.90;;;;;;5080574;28;20035;-72
2023/12/19 05:02:58;;;;;;;38.75;21.65;;;6.80;99.90;;;;;;5066793;28;20033;-72
2023/12/19 05:05:24;;;;;;;44.22;21.23;;;6.70;99.90;;;;;;5070897;28;20484;-72
2023/12/19 05:07:49;;;;;;;46.15;22.67;;;6.80;99.90;;;;;;5073490;28;20138;-72
2023/12/19 05:10:15;;;;;;;42.95;22.75;;;6.80;99.90;;;;;;5072077;28;20029;-72
2023/12/19 05:12:41;;;;;;;43.63;22.90;;;6.80;99.90;;;;;;5054941;28;20041;-72
2023/12/19 05:15:07;;;;;;;44.28;23.00;;;6.90;99.90;;;;;;5062660;28;20032;-72
2023/12/19 05:17:32;;;;;;;47.78;21.88;;;6.90;99.90;;;;;;5066723;28;20111;-72
2023/12/19 05:19:59;;;;;;;44.22;21.60;;;6.80;99.90;;;;;;5070061;28;20457;-72
2023/12/19 05:22:25;;;;;;;42.58;21.85;;;6.90;99.90;;;;;;5065613;28;20395;-72
2023/12/19 05:24:51;;;;;;;43.70;21.58;;;6.90;99.90;;;;;;5079177;28;20028;-72
2023/12/19 05:27:17;;;;;;;50.67;24.27;;;6.90;99.90;;;;;;5071493;28;20102;-72
2023/12/19 05:29:43;;;;;;;47.13;23.10;;;7.00;99.90;;;;;;5069691;28;20472;-72
2023/12/19 05:32:10;;;;;;;49.40;25.63;;;7.00;99.90;;;;;;5067242;28;20028;-72
2023/12/19 05:34:35;;;;;;;51.53;24.25;;;7.00;99.90;;;;;;5066284;28;20029;-72
2023/12/19 05:37:01;;;;;;;49.15;25.80;;;7.00;99.90;;;;;;5056331;28;20029;-72
2023/12/19 05:39:27;;;;;;;54.25;26.02;;;7.00;99.90;;;;;;5065137;28;20027;-72
2023/12/19 05:41:56;;;;;;;49.63;25.05;;;7.10;99.90;;;;;;5075140;28;20476;-72
2023/12/19 05:44:22;;;;;;;59.03;26.50;;;7.10;99.90;;;;;;5063423;28;20040;-72
2023/12/19 05:46:48;;;;;;;55.70;28.17;;;7.10;99.90;;;;;;5070337;28;20105;-72
2023/12/19 05:49:14;;;;;;;49.30;24.02;;;7.10;99.90;;;;;;5067388;28;20535;-72
2023/12/19 05:51:40;;;;;;;47.55;25.42;;;7.10;99.90;;;;;;5062681;28;20662;-72
2023/12/19 05:54:06;;;;;;;49.20;24.60;;;7.10;99.90;;;;;;5066013;28;20124;-72
2023/12/19 05:56:33;;;;;;;46.45;24.00;;;7.20;99.90;;;;;;5089758;28;20038;-72
2023/12/19 05:58:59;;;;;;;58.20;25.98;;;7.20;99.90;;;;;;5072545;28;20078;-72
2023/12/19 06:01:25;;;;;;;45.45;23.67;;;7.20;99.90;;;;;;5072485;28;20031;-73
2023/12/19 06:03:51;;;;;;;46.80;23.42;;;7.20;99.90;;;;;;5063125;28;20032;-72
2023/12/19 06:06:20;;;;;;;47.30;25.05;;;7.20;99.90;;;;;;5066344;28;20037;-73
2023/12/19 06:08:46;;;;;;;46.25;24.13;;;7.20;99.90;;;;;;5059447;28;20044;-73
2023/12/19 06:11:12;;;;;;;45.80;24.55;;;7.20;99.90;;;;;;5065982;28;20101;-73
2023/12/19 06:13:38;;;;;;;49.03;25.92;;;7.30;99.90;;;;;;5067090;28;20166;-73
2023/12/19 06:16:05;;;;;;;46.85;24.75;;;7.20;99.90;;;;;;5069222;28;20029;-73
2023/12/19 06:18:31;;;;;;;51.65;24.80;;;7.20;99.90;;;;;;5084166;28;20028;-73
2023/12/19 06:20:56;;;;;;;49.58;24.83;;;7.20;99.90;;;;;;5066847;28;20040;-73
2023/12/19 06:23:22;;;;;;;44.60;24.48;;;7.30;99.90;;;;;;5071337;28;20029;-73
2023/12/19 06:25:47;;;;;;;43.47;24.05;;;7.30;99.90;;;;;;5078920;28;20035;-73
2023/12/19 06:28:16;;;;;;;51.90;25.00;;;7.30;99.90;;;;;;5053760;28;20127;-73
2023/12/19 06:30:41;;;;;;;47.72;25.10;;;7.30;99.90;;;;;;5063086;28;20028;-72
2023/12/19 06:33:07;;;;;;;50.47;25.88;;;7.30;99.90;;;;;;5068191;28;20029;-73
2023/12/19 06:35:32;;;;;;;48.13;25.35;;;7.30;99.90;;;;;;5073658;28;20095;-73
2023/12/19 06:38:00;;;;;;;51.60;25.63;;;7.30;99.90;;;;;;5062066;28;20078;-73
2023/12/19 06:40:26;;;;;;;50.70;26.55;;;7.30;99.90;;;;;;5058406;28;20103;-73
2023/12/19 06:42:51;;;;;;;49.38;27.05;;;7.30;99.90;;;;;;5052784;28;20108;-72
2023/12/19 06:45:18;;;;;;;46.17;24.88;;;7.30;99.90;;;;;;5079237;28;20055;-73
2023/12/19 06:47:45;;;;;;;53.22;25.73;;;7.30;99.90;;;;;;5058553;28;20131;-73
2023/12/19 06:50:11;;;;;;;55.92;27.05;;;7.30;99.90;;;;;;5056432;28;20017;-73
2023/12/19 06:52:36;;;;;;;51.15;26.58;;;7.30;99.90;;;;;;5070753;28;20032;-73
2023/12/19 06:55:02;;;;;;;48.47;26.00;;;7.30;99.90;;;;;;5057112;28;20661;-73
2023/12/19 06:57:27;;;;;;;54.42;27.00;;;7.30;99.90;;;;;;5067914;28;20085;-73
2023/12/19 06:59:53;;;;;;;57.58;29.80;;;7.30;99.90;;;;;;5064726;28;20040;-72
2023/12/19 07:02:19;;;;;;;47.08;25.98;;;7.30;99.90;;;;;;5061865;28;20033;-73
2023/12/19 07:04:44;;;;;;;59.45;30.10;;;7.30;99.90;;;;;;5056667;28;20021;-72
2023/12/19 07:07:10;;;;;;;58.15;29.23;;;7.30;99.90;;;;;;5061150;28;20044;-72
2023/12/19 07:09:38;;;;;;;54.85;30.60;;;7.30;99.90;;;;;;5065767;28;20020;-72
2023/12/19 07:12:04;;;;;;;56.35;29.20;;;7.30;99.90;;;;;;5069969;28;20214;-73
2023/12/19 07:14:30;;;;;;;62.53;30.85;;;7.30;99.90;;;;;;5059150;28;20021;-73
2023/12/19 07:16:55;;;;;;;56.30;30.30;;;7.30;99.90;;;;;;5054750;28;20029;-72
2023/12/19 07:19:21;;;;;;;57.70;29.98;;;7.40;99.90;;;;;;5059978;28;20451;-72
2023/12/19 07:21:48;;;;;;;61.75;32.00;;;7.30;99.90;;;;;;5071875;28;20458;-73
2023/12/19 07:24:14;;;;;;;58.72;30.35;;;7.30;99.90;;;;;;5058562;28;20061;-72
2023/12/19 07:26:39;;;;;;;65.45;30.35;;;7.30;99.90;;;;;;5086197;28;20590;-73
2023/12/19 07:29:08;;;;;;;60.80;32.13;;;7.40;99.90;;;;;;5055531;28;20029;-73
2023/12/19 07:31:34;;;;;;;61.25;31.48;;;7.40;99.90;;;;;;5057782;28;20083;-72
2023/12/19 07:34:01;;;;;;;59.78;31.88;;;7.40;99.90;;;;;;5080270;28;20028;-73
2023/12/19 07:36:27;;;;;;;59.75;31.20;;;7.40;99.90;;;;;;5086062;28;20028;-72
2023/12/19 07:38:53;;;;;;;66.20;30.88;;;7.40;99.90;;;;;;5061408;28;20033;-72
2023/12/19 07:41:20;;;;;;;57.35;31.65;;;7.50;99.90;;;;;;5067545;28;20035;-72
2023/12/19 07:43:46;;;;;;;55.03;30.27;;;7.50;99.90;;;;;;5061840;28;20073;-73
2023/12/19 07:46:14;;;;;;;52.63;28.48;;;7.50;99.90;;;;;;5062870;28;20063;-73
2023/12/19 07:48:40;;;;;;;55.20;30.05;;;7.50;99.90;;;;;;5060505;28;20119;-73
2023/12/19 07:51:06;;;;;;;58.03;30.48;;;7.50;99.90;;;;;;5064828;28;20082;-73
2023/12/19 07:53:32;;;;;;;57.20;30.63;;;7.50;99.90;;;;;;5060950;28;20032;-73
2023/12/19 07:56:00;;;;;;;58.47;31.83;;;7.50;99.90;;;;;;5069679;28;20024;-73
2023/12/19 07:58:29;;;;;;;52.28;29.05;;;7.60;99.90;;;;;;5069648;28;20051;-73
2023/12/19 08:00:55;;;;;;;50.53;28.20;;;7.50;99.90;;;;;;5062629;28;20028;-73
2023/12/19 08:03:27;;;;;;;53.47;29.08;;;7.60;99.90;;;;;;5072822;28;20503;-73
2023/12/19 08:05:55;;;;;;;57.42;29.80;;;7.60;99.90;;;;;;5079678;28;20468;-73
2023/12/19 08:08:21;;;;;;;54.17;29.38;;;7.60;99.90;;;;;;5049381;28;20063;-74
2023/12/19 08:10:47;;;;;;;48.65;27.27;;;7.60;99.90;;;;;;5066293;28;20055;-73
2023/12/19 08:13:13;;;;;;;54.75;28.77;;;7.60;99.90;;;;;;5070366;28;20056;-73
2023/12/19 08:15:40;;;;;;;51.55;29.38;;;7.60;99.90;;;;;;5070279;28;20418;-73
2023/12/19 08:18:07;;;;;;;47.97;26.77;;;7.70;99.90;;;;;;5070305;28;20025;-73
2023/12/19 08:20:33;;;;;;;48.25;27.27;;;7.70;99.90;;;;;;5076793;28;20481;-73
2023/12/19 08:22:59;;;;;;;47.85;28.42;;;7.70;99.90;;;;;;5054907;28;20033;-73
2023/12/19 08:25:25;;;;;;;45.90;27.35;;;7.80;99.90;;;;;;5052139;28;20338;-73
2023/12/19 08:27:50;;;;;;;50.03;28.50;;;7.70;99.90;;;;;;5072760;28;20041;-73
2023/12/19 08:30:16;;;;;;;49.55;27.83;;;7.80;99.90;;;;;;5052668;28;20027;-73
2023/12/19 08:32:42;;;;;;;46.17;27.55;;;7.80;99.90;;;;;;5089886;28;20112;-73
2023/12/19 08:35:07;;;;;;;48.50;26.60;;;7.80;99.90;;;;;;5068426;28;20028;-73
2023/12/19 08:37:33;;;;;;;46.80;25.33;;;7.80;99.90;;;;;;5078201;28;20376;-73
2023/12/19 08:40:02;;;;;;;40.80;24.75;;;7.80;99.90;;;;;;5070286;28;20126;-73
2023/12/19 08:42:29;;;;;;;43.35;24.98;;;7.90;99.90;;;;;;5060653;28;20121;-73
2023/12/19 08:44:55;;;;;;;42.45;25.23;;;7.80;99.90;;;;;;5058355;28;20155;-72
2023/12/19 08:47:25;;;;;;;39.13;23.48;;;7.80;99.90;;;;;;5065395;28;20503;-73
2023/12/19 08:49:53;;;;;;;40.88;25.15;;;7.80;99.90;;;;;;5050862;28;20021;-71
2023/12/19 08:52:23;;;;;;;40.53;24.52;;;7.80;99.90;;;;;;5052447;28;20040;-72
2023/12/19 08:54:49;;;;;;;42.97;23.67;;;7.80;99.90;;;;;;5091027;28;20028;-72
2023/12/19 08:57:15;;;;;;;39.15;22.42;;;7.80;99.90;;;;;;5070325;28;20373;-73
2023/12/19 08:59:40;;;;;;;35.28;20.75;;;7.80;99.90;;;;;;5059000;28;20609;-72
2023/12/19 09:02:06;;;;;;;33.20;19.48;;;7.80;99.90;;;;;;5060323;28;20063;-72
2023/12/19 09:04:32;;;;;;;31.23;18.85;;;7.80;99.90;;;;;;5089609;28;20028;-72
2023/12/19 09:06:59;;;;;;;30.55;18.42;;;7.80;99.90;;;;;;5077782;28;20388;-72
2023/12/19 09:09:25;;;;;;;30.20;18.70;;;7.80;99.90;;;;;;5090693;28;20085;-72
2023/12/19 09:11:50;;;;;;;31.83;19.17;;;7.80;99.90;;;;;;5065940;28;20064;-72
2023/12/19 09:14:17;;;;;;;28.73;17.95;;;7.80;99.90;;;;;;5074716;28;20055;-72
2023/12/19 09:16:43;;;;;;;28.48;15.63;;;7.70;99.90;;;;;;5050805;28;20021;-72
2023/12/19 09:19:09;;;;;;;29.35;17.75;;;7.80;99.90;;;;;;5094983;28;20065;-72
2023/12/19 09:21:35;;;;;;;29.13;17.27;;;7.70;99.90;;;;;;5073842;28;20404;-72
2023/12/19 09:24:00;;;;;;;27.92;16.42;;;7.70;99.90;;;;;;5054168;28;20036;-72
2023/12/19 09:26:27;;;;;;;26.65;17.40;;;7.70;99.90;;;;;;5091631;28;20085;-72
2023/12/19 09:28:55;;;;;;;28.08;16.88;;;7.70;99.90;;;;;;5060766;28;20036;-72
2023/12/19 09:31:21;;;;;;;26.55;17.67;;;7.70;99.90;;;;;;5060505;28;20020;-72
2023/12/19 09:33:46;;;;;;;30.33;17.02;;;7.80;99.90;;;;;;5094688;28;20032;-72
2023/12/19 09:36:21;;;;;;;30.23;16.75;;;7.80;99.90;;;;;;5091309;28;20085;-72
2023/12/19 09:38:46;;;;;;;26.88;16.95;;;7.70;99.90;;;;;;5054007;28;20560;-72
2023/12/19 09:41:13;;;;;;;27.30;15.18;;;7.80;99.90;;;;;;5056353;28;20115;-72
2023/12/19 09:43:39;;;;;;;25.92;16.38;;;7.80;99.90;;;;;;5060821;28;20083;-72
2023/12/19 09:46:05;;;;;;;28.98;17.30;;;7.80;99.90;;;;;;5086606;28;20028;-72
2023/12/19 09:48:33;;;;;;;29.02;16.38;;;7.80;99.90;;;;;;5085013;28;20381;-72
2023/12/19 09:51:03;;;;;;;28.77;16.40;;;7.80;99.90;;;;;;5088604;28;20069;-72
2023/12/19 09:53:34;;;;;;;28.77;16.83;;;7.80;99.90;;;;;;5093276;28;20024;-72
2023/12/19 09:56:01;;;;;;;29.02;16.92;;;7.80;99.90;;;;;;5081467;28;20107;-72
2023/12/19 09:58:28;;;;;;;27.65;17.77;;;7.80;99.90;;;;;;5074225;28;20057;-72
2023/12/19 10:00:57;;;;;;;30.30;17.60;;;7.80;99.90;;;;;;5072350;28;20036;-72
2023/12/19 10:03:23;;;;;;;29.23;17.90;;;7.90;99.90;;;;;;5093124;28;20028;-73
2023/12/19 10:05:49;;;;;;;29.42;16.60;;;7.80;99.90;;;;;;5076920;28;20032;-72
2023/12/19 10:08:17;;;;;;;27.70;16.88;;;7.80;99.90;;;;;;5084781;28;20036;-72
2023/12/19 10:10:56;;;;;;;30.38;16.42;;;7.90;99.90;;;;;;5058492;28;20024;-72
2023/12/19 10:13:32;;;;;;;27.98;17.05;;;7.90;99.90;;;;;;5053086;28;20021;-72
2023/12/19 10:16:05;;;;;;;29.45;17.92;;;7.90;99.90;;;;;;5053280;28;20033;-72
2023/12/19 10:18:31;;;;;;;26.02;16.40;;;7.90;99.90;;;;;;5068477;28;20021;-72
2023/12/19 10:21:14;;;;;;;25.15;16.27;;;7.90;99.90;;;;;;5053017;28;20036;-72
2023/12/19 10:23:43;;;;;;;24.48;14.25;;;7.90;99.90;;;;;;5053461;28;20451;-72
2023/12/19 10:26:10;;;;;;;27.85;15.40;;;7.90;99.90;;;;;;5053238;28;20029;-72
2023/12/19 10:28:37;;;;;;;24.77;15.68;;;7.90;99.90;;;;;;5071726;28;20506;-72
2023/12/19 10:31:15;;;;;;;24.25;14.30;;;7.90;99.90;;;;;;5079027;28;20459;-72
2023/12/19 10:33:49;;;;;;;20.33;14.02;;;8.00;99.90;;;;;;5056287;28;20029;-72
2023/12/19 10:36:32;;;;;;;22.02;13.60;;;8.00;99.90;;;;;;5058272;28;20032;-72
2023/12/19 10:38:59;;;;;;;20.63;13.15;;;8.00;99.90;;;;;;5072123;28;20046;-72
2023/12/19 10:41:29;;;;;;;21.92;13.82;;;8.00;99.90;;;;;;5052797;28;20021;-72
2023/12/19 10:43:57;;;;;;;22.17;13.65;;;8.00;99.90;;;;;;5082682;28;20041;-72
2023/12/19 10:46:32;;;;;;;21.80;13.35;;;8.00;99.90;;;;;;5091570;28;20025;-72
2023/12/19 10:49:05;;;;;;;20.83;12.95;;;7.90;99.90;;;;;;5092856;28;20069;-72
2023/12/19 10:51:34;;;;;;;19.85;12.45;;;7.90;99.90;;;;;;5072730;28;20025;-72
2023/12/19 10:54:10;;;;;;;19.70;11.80;;;7.90;99.90;;;;;;5052672;28;20028;-72
2023/12/19 10:56:54;;;;;;;19.65;12.98;;;8.00;99.90;;;;;;5063998;28;20032;-72
2023/12/19 10:59:30;;;;;;;19.08;12.80;;;7.90;99.90;;;;;;5092448;28;20024;-72
2023/12/19 11:02:30;;;;;;;20.00;12.27;;;7.90;99.90;;;;;;5073593;28;20033;-72
2023/12/19 11:05:17;;;;;;;21.48;13.18;;;8.00;99.90;;;;;;5070556;28;20029;-72
2023/12/19 11:07:44;;;;;;;22.63;14.10;;;8.00;99.90;;;;;;5071903;28;20060;-72
2023/12/19 11:10:11;;;;;;;22.40;12.93;;;7.90;99.90;;;;;;5078457;28;20024;-72
2023/12/19 11:12:37;;;;;;;20.02;12.45;;;7.90;99.90;;;;;;5071789;28;20034;-72
2023/12/19 11:15:05;;;;;;;22.40;13.60;;;7.90;99.90;;;;;;5085571;28;20081;-72
2023/12/19 11:18:05;;;;;;;19.33;13.30;;;8.00;99.90;;;;;;5088113;28;20024;-72
2023/12/19 11:20:44;;;;;;;22.45;13.90;;;8.00;99.90;;;;;;5083741;28;20024;-72
2023/12/19 11:23:42;;;;;;;21.77;13.27;;;8.00;99.90;;;;;;5091671;28;20024;-72
2023/12/19 11:26:17;;;;;;;22.55;12.50;;;8.00;99.90;;;;;;5054235;28;20033;-72
2023/12/19 11:28:43;;;;;;;22.15;12.73;;;8.00;99.90;;;;;;5074488;28;20046;-72
2023/12/19 11:31:28;;;;;;;20.48;12.23;;;8.00;99.90;;;;;;5076428;28;20028;-72
2023/12/19 11:33:53;;;;;;;21.48;13.35;;;8.00;99.90;;;;;;5083183;28;20031;-72
2023/12/19 11:36:19;;;;;;;19.60;12.55;;;8.00;99.90;;;;;;5065555;28;20013;-72
2023/12/19 11:38:46;;;;;;;20.77;13.00;;;7.90;99.90;;;;;;5084407;28;20032;-72
2023/12/19 11:41:34;;;;;;;20.73;13.38;;;8.00;99.90;;;;;;5090595;28;20035;-72
2023/12/19 11:44:00;;;;;;;20.08;12.63;;;8.00;99.90;;;;;;5066745;28;20480;-72
2023/12/19 11:46:26;;;;;;;20.40;13.02;;;8.00;99.90;;;;;;5075785;28;20081;-72
2023/12/19 11:48:52;;;;;;;24.42;13.88;;;7.90;99.90;;;;;;5073959;28;20445;-72
2023/12/19 11:51:42;;;;;;;18.92;12.02;;;8.00;99.90;;;;;;5074429;28;20020;-72
2023/12/19 11:54:13;;;;;;;18.08;11.95;;;8.00;99.90;;;;;;5091208;28;20103;-72
2023/12/19 11:56:39;;;;;;;18.25;11.55;;;8.00;99.90;;;;;;5062049;28;20041;-72
2023/12/19 11:59:05;;;;;;;18.00;12.38;;;8.00;99.90;;;;;;5055417;28;20405;-72
2023/12/19 12:01:39;;;;;;;17.52;11.43;;;8.00;99.90;;;;;;5058745;28;20029;-72
2023/12/19 12:04:06;;;;;;;18.27;11.93;;;8.00;99.90;;;;;;5051959;28;20100;-72
2023/12/19 12:06:32;;;;;;;16.08;10.32;;;8.00;99.90;;;;;;5050448;28;20362;-72
2023/12/19 12:08:59;;;;;;;15.10;9.23;;;8.00;99.90;;;;;;5075084;28;20024;-72
2023/12/19 12:11:25;;;;;;;14.55;8.85;;;8.00;99.90;;;;;;5086679;28;20016;-72
2023/12/19 12:14:01;;;;;;;16.15;9.60;;;8.00;99.90;;;;;;5091451;28;20039;-72
2023/12/19 12:16:38;;;;;;;14.57;9.00;;;8.00;99.90;;;;;;5075357;28;20024;-73
2023/12/19 12:19:17;;;;;;;13.40;8.55;;;8.10;99.90;;;;;;5091013;28;20028;-72
2023/12/19 12:21:51;;;;;;;13.25;8.38;;;8.10;99.90;;;;;;5082291;28;20480;-72
2023/12/19 12:24:26;;;;;;;13.43;8.25;;;8.00;99.90;;;;;;5079798;28;20028;-72
2023/12/19 12:27:09;;;;;;;12.40;7.85;;;8.10;99.90;;;;;;5070638;28;20133;-72
2023/12/19 12:29:37;;;;;;;;;;;8.10;99.90;;;;;;5051052;28;20426;-72
2023/12/19 12:32:04;;;;;;;11.20;7.03;;;8.00;99.90;;;;;;5071322;28;19908;-72
2023/12/19 12:34:33;;;;;;;14.15;8.32;;;8.00;99.90;;;;;;5069609;28;20029;-72
2023/12/19 12:36:58;;;;;;;11.38;7.60;;;8.00;99.90;;;;;;5055569;28;20654;-72
2023/12/19 12:39:24;;;;;;;11.68;7.88;;;8.00;99.90;;;;;;5051772;28;20052;-72